Time;durP1;ratioP1;P1;durP2;ratioP2;P2;SDS_P1;SDS_P2;PMS_P1;PMS_P2;Temp;Humidity;BMP_temperature;BMP_pressure;BME280_temperature;BME280_humidity;BME280_pressure;Samples;Min_cycle;Max_cycle;Signal;HPM_P1;HPM_P2
2022/11/13 00:02:02;;;;;;;17.73;12.85;;;;;;;6.32;93.40;102640.16;5051555;28;20172;-74
2022/11/13 00:04:27;;;;;;;19.27;12.45;;;;;;;6.34;93.71;102637.69;5033377;28;20029;-74
2022/11/13 00:06:52;;;;;;;18.67;13.00;;;;;;;6.35;94.47;102635.19;5055434;28;20078;-69
2022/11/13 00:09:18;;;;;;;17.98;12.77;;;;;;;6.37;93.98;102632.72;5062335;28;20271;-69
2022/11/13 00:11:43;;;;;;;19.05;13.02;;;;;;;6.36;93.54;102629.22;5064629;28;20060;-69
2022/11/13 00:14:08;;;;;;;19.35;13.05;;;;;;;6.36;93.63;102626.63;5054720;28;20078;-69
2022/11/13 00:16:33;;;;;;;18.05;13.60;;;;;;;6.37;94.25;102631.03;5036360;28;20275;-69
2022/11/13 00:18:59;;;;;;;17.63;13.07;;;;;;;6.37;94.07;102625.84;5060731;28;20021;-69
2022/11/13 00:21:28;;;;;;;19.80;13.38;;;;;;;6.38;94.00;102625.03;5057818;28;20025;-69
2022/11/13 00:23:55;;;;;;;17.58;12.05;;;;;;;6.38;93.51;102618.97;5059731;28;20036;-69
2022/11/13 00:26:22;;;;;;;20.52;13.27;;;;;;;6.35;93.19;102624.84;5051251;28;20016;-69
2022/11/13 00:28:53;;;;;;;23.73;13.65;;;;;;;6.33;92.97;102615.16;5042640;28;20303;-69
2022/11/13 00:31:18;;;;;;;20.63;13.90;;;;;;;6.32;93.01;102614.28;5059764;28;20179;-69
2022/11/13 00:33:43;;;;;;;18.38;13.07;;;;;;;6.32;92.78;102618.56;5062592;28;20016;-69
2022/11/13 00:36:14;;;;;;;20.15;13.45;;;;;;;6.29;92.55;102619.25;5042229;28;20025;-69
2022/11/13 00:38:39;;;;;;;18.52;12.98;;;;;;;6.26;92.69;102617.31;5056852;28;20236;-69
2022/11/13 00:41:05;;;;;;;18.60;13.25;;;;;;;6.25;92.73;102606.88;5050140;28;20021;-69
2022/11/13 00:43:30;;;;;;;17.80;13.02;;;;;;;6.24;92.61;102599.88;5055119;28;20099;-69
2022/11/13 00:45:55;;;;;;;19.05;12.40;;;;;;;6.23;92.31;102599.00;5060473;28;20021;-69
2022/11/13 00:48:21;;;;;;;18.67;13.27;;;;;;;6.22;92.04;102606.66;5041372;28;20084;-70
2022/11/13 00:50:46;;;;;;;18.50;12.57;;;;;;;6.21;91.93;102595.41;5047576;28;20211;-70
2022/11/13 00:53:12;;;;;;;16.88;12.35;;;;;;;6.19;92.24;102599.56;5053751;28;20040;-69
2022/11/13 00:55:37;;;;;;;17.25;11.95;;;;;;;6.16;91.88;102598.47;5055314;28;20025;-69
2022/11/13 00:58:03;;;;;;;16.05;11.20;;;;;;;6.11;91.30;102590.38;5041163;28;20013;-69
2022/11/13 01:00:30;;;;;;;16.92;11.32;;;;;;;6.08;91.01;102604.00;5064450;28;20029;-69
2022/11/13 01:02:57;;;;;;;16.48;12.20;;;;;;;6.03;91.52;102599.31;5051318;28;20259;-69
2022/11/13 01:05:23;;;;;;;15.95;11.52;;;;;;;5.99;91.21;102590.41;5063050;28;20218;-69
2022/11/13 01:07:48;;;;;;;13.88;10.88;;;;;;;5.97;91.39;102588.47;5054017;28;20029;-69
2022/11/13 01:10:13;;;;;;;14.95;11.02;;;;;;;5.92;91.52;102586.47;5064051;28;20009;-69
2022/11/13 01:12:39;;;;;;;14.48;10.35;;;;;;;5.87;91.34;102576.59;5065193;28;20028;-70
2022/11/13 01:15:05;;;;;;;15.57;12.02;;;;;;;5.84;91.62;102582.44;5064064;28;20028;-69
2022/11/13 01:17:30;;;;;;;18.60;12.02;;;;;;;5.83;91.00;102582.31;5056705;28;20256;-74
2022/11/13 01:19:55;;;;;;;15.25;11.48;;;;;;;5.80;91.35;102579.53;5050281;28;20029;-75
2022/11/13 01:22:21;;;;;;;17.02;11.23;;;;;;;5.79;91.70;102588.06;5052046;28;20036;-74
2022/11/13 01:24:46;;;;;;;15.82;11.77;;;;;;;5.78;91.30;102586.25;5063096;28;20156;-74
2022/11/13 01:27:12;;;;;;;17.48;12.57;;;;;;;5.78;91.75;102586.25;5057172;28;20017;-74
2022/11/13 01:29:38;;;;;;;18.63;11.80;;;;;;;5.76;91.33;102588.75;5056328;28;20025;-74
2022/11/13 01:32:03;;;;;;;16.65;11.95;;;;;;;5.75;91.40;102580.09;5069540;28;20373;-75
2022/11/13 01:34:28;;;;;;;18.80;12.07;;;;;;;5.77;91.83;102581.91;5054789;28;20029;-75
2022/11/13 01:36:54;;;;;;;17.27;11.93;;;;;;;5.76;91.75;102575.81;5063185;28;20271;-74
2022/11/13 01:39:19;;;;;;;16.92;11.73;;;;;;;5.76;91.50;102570.63;5060667;28;20052;-74
2022/11/13 01:41:44;;;;;;;20.05;12.88;;;;;;;5.74;91.80;102567.06;5063803;28;20095;-75
2022/11/13 01:44:12;;;;;;;18.35;11.57;;;;;;;5.73;91.59;102573.00;5056046;28;20037;-74
2022/11/13 01:46:58;;;;;;;16.27;11.93;;;;;;;5.73;92.12;102579.06;5056212;28;20083;-74
2022/11/13 01:49:39;;;;;;;17.35;11.63;;;;;;;5.72;92.33;102579.88;5055704;28;20119;-74
2022/11/13 01:52:11;;;;;;;16.52;11.65;;;;;;;5.73;92.03;102571.31;5048779;28;20021;-74
2022/11/13 01:54:42;;;;;;;17.00;11.55;;;;;;;5.72;91.75;102563.44;5059879;28;20033;-74
2022/11/13 01:57:08;;;;;;;16.27;11.52;;;;;;;5.70;92.00;102563.34;5057609;28;20032;-75
2022/11/13 01:59:38;;;;;;;15.80;11.45;;;;;;;5.68;91.60;102554.59;5055489;28;20033;-75
2022/11/13 02:02:03;;;;;;;18.35;12.18;;;;;;;5.67;91.41;102551.88;5062082;28;20040;-74
2022/11/13 02:04:29;;;;;;;17.42;12.15;;;;;;;5.67;91.43;102549.31;5050736;28;20013;-74
2022/11/13 02:06:58;;;;;;;17.25;11.52;;;;;;;5.64;91.56;102547.38;5056652;28;20088;-74
2022/11/13 02:09:31;;;;;;;16.10;11.68;;;;;;;5.62;91.74;102541.22;5057397;28;20033;-74
2022/11/13 02:11:57;;;;;;;16.33;11.35;;;;;;;5.58;91.68;102534.03;5057178;28;20017;-74
2022/11/13 02:14:25;;;;;;;16.38;10.80;;;;;;;5.57;91.42;102535.69;5050443;28;20263;-74
2022/11/13 02:16:55;;;;;;;15.63;10.57;;;;;;;5.56;91.79;102538.19;5060992;28;20028;-74
2022/11/13 02:19:26;;;;;;;16.08;11.68;;;;;;;5.53;91.67;102531.13;5057742;28;20219;-74
2022/11/13 02:22:15;;;;;;;14.02;10.30;;;;;;;5.52;91.51;102529.31;5047354;28;20029;-74
2022/11/13 02:24:43;;;;;;;13.95;10.43;;;;;;;5.50;90.82;102523.13;5059005;28;20017;-74
2022/11/13 02:27:16;;;;;;;14.38;10.15;;;;;;;5.48;91.09;102527.31;5066515;28;20272;-74
2022/11/13 02:29:41;;;;;;;14.43;10.20;;;;;;;5.47;90.80;102522.03;5054815;28;20037;-74
2022/11/13 02:32:07;;;;;;;17.00;10.40;;;;;;;5.45;91.05;102519.34;5056650;28;20024;-75
2022/11/13 02:34:32;;;;;;;14.88;10.57;;;;;;;5.44;90.83;102516.63;5051352;28;20043;-74
2022/11/13 02:36:57;;;;;;;14.35;10.45;;;;;;;5.43;91.03;102520.94;5053810;28;20041;-74
2022/11/13 02:39:23;;;;;;;13.27;10.43;;;;;;;5.40;90.86;102519.00;5062934;28;20018;-74
2022/11/13 02:41:48;;;;;;;13.77;10.05;;;;;;;5.37;91.10;102520.47;5057767;28;20292;-74
2022/11/13 02:44:13;;;;;;;14.55;10.38;;;;;;;5.35;90.95;102520.34;5056838;28;20095;-75
2022/11/13 02:46:39;;;;;;;14.05;9.80;;;;;;;5.34;91.49;102515.97;5056357;28;20206;-69
2022/11/13 02:49:05;;;;;;;15.63;10.63;;;;;;;5.32;91.19;102507.22;5051302;28;20344;-70
2022/11/13 02:51:30;;;;;;;14.48;10.13;;;;;;;5.31;91.74;102513.16;5060147;28;20044;-69
2022/11/13 02:53:55;;;;;;;14.52;9.90;;;;;;;5.30;91.63;102503.63;5047158;28;20013;-69
2022/11/13 02:56:21;;;;;;;14.48;10.18;;;;;;;5.28;91.96;102504.31;5051715;28;20044;-69
2022/11/13 02:58:46;;;;;;;13.60;9.65;;;;;;;5.26;91.44;102501.59;5054606;28;20016;-69
2022/11/13 03:01:11;;;;;;;14.55;10.30;;;;;;;5.24;92.15;102505.75;5053152;28;20017;-69
2022/11/13 03:03:36;;;;;;;14.90;9.85;;;;;;;5.23;92.29;102507.44;5052140;28;20363;-69
2022/11/13 03:06:02;;;;;;;14.40;9.70;;;;;;;5.22;92.38;102503.06;5056220;28;20047;-70
2022/11/13 03:08:27;;;;;;;14.00;10.05;;;;;;;5.22;92.22;102497.00;5054802;28;20028;-70
2022/11/13 03:10:53;;;;;;;14.05;9.95;;;;;;;5.21;92.65;102498.69;5061795;28;20092;-70
2022/11/13 03:13:18;;;;;;;13.73;9.73;;;;;;;5.20;92.31;102496.00;5059625;28;20067;-70
2022/11/13 03:15:44;;;;;;;14.68;10.10;;;;;;;5.20;92.43;102483.97;5051942;28;20026;-70
2022/11/13 03:18:10;;;;;;;14.18;10.05;;;;;;;5.20;92.47;102485.66;5053341;28;20024;-75
2022/11/13 03:20:37;;;;;;;13.70;9.82;;;;;;;5.19;92.89;102474.41;5051183;28;20026;-74
2022/11/13 03:23:03;;;;;;;15.63;9.80;;;;;;;5.19;93.43;102476.13;5057198;28;20325;-74
2022/11/13 03:25:28;;;;;;;13.57;9.60;;;;;;;5.19;93.50;102474.41;5052564;28;20032;-75
2022/11/13 03:27:53;;;;;;;12.75;9.65;;;;;;;5.19;93.19;102476.13;5056124;28;20031;-75
2022/11/13 03:30:19;;;;;;;13.77;10.00;;;;;;;5.21;93.88;102474.53;5037720;28;20061;-74
2022/11/13 03:32:44;;;;;;;13.80;9.98;;;;;;;5.22;93.70;102473.75;5046866;28;20013;-75
2022/11/13 03:35:10;;;;;;;13.30;9.93;;;;;;;5.25;93.98;102470.50;5051843;28;20036;-75
2022/11/13 03:37:35;;;;;;;14.90;10.10;;;;;;;5.26;94.24;102473.19;5052409;28;20065;-75
2022/11/13 03:40:00;;;;;;;14.20;10.20;;;;;;;5.28;94.76;102474.19;5057450;28;20025;-75
2022/11/13 03:42:25;;;;;;;14.25;9.98;;;;;;;5.30;94.78;102467.44;5060301;28;20036;-74
2022/11/13 03:44:51;;;;;;;13.43;9.98;;;;;;;5.33;94.65;102470.25;5055333;28;20021;-75
2022/11/13 03:47:16;;;;;;;12.85;10.20;;;;;;;5.36;94.95;102467.00;5057758;28;20283;-74
2022/11/13 03:49:41;;;;;;;14.02;9.45;;;;;;;5.38;94.90;102465.41;5059428;28;20040;-74
2022/11/13 03:52:06;;;;;;;14.23;9.82;;;;;;;5.38;94.82;102470.56;5037502;28;20018;-75
2022/11/13 03:54:32;;;;;;;15.00;10.10;;;;;;;5.39;95.18;102465.50;5062179;28;20095;-74
2022/11/13 03:56:57;;;;;;;13.35;10.18;;;;;;;5.39;94.80;102462.91;5058835;28;20025;-75
2022/11/13 03:59:22;;;;;;;15.32;10.40;;;;;;;5.42;95.12;102462.25;5053580;28;20259;-75
2022/11/13 04:01:48;;;;;;;13.40;10.18;;;;;;;5.43;95.20;102456.28;5060083;28;20070;-75
2022/11/13 04:04:14;;;;;;;13.25;9.40;;;;;;;5.45;95.27;102449.53;5052026;28;20029;-75
2022/11/13 04:06:40;;;;;;;14.13;10.18;;;;;;;5.47;95.02;102449.63;5054405;28;20596;-75
2022/11/13 04:09:05;;;;;;;14.48;10.07;;;;;;;5.49;95.14;102440.28;5066066;28;20080;-75
2022/11/13 04:11:31;;;;;;;13.77;9.95;;;;;;;5.50;94.73;102444.69;5049908;28;20032;-75
2022/11/13 04:13:56;;;;;;;13.65;10.05;;;;;;;5.52;95.46;102440.53;5058895;28;20017;-75
2022/11/13 04:16:21;;;;;;;14.07;9.50;;;;;;;5.53;95.26;102443.22;5054445;28;20096;-70
2022/11/13 04:18:47;;;;;;;15.68;10.60;;;;;;;5.55;95.46;102444.22;5065864;28;20063;-70
2022/11/13 04:21:12;;;;;;;12.85;9.35;;;;;;;5.57;95.44;102441.72;5057146;28;20047;-70
2022/11/13 04:23:37;;;;;;;14.65;9.95;;;;;;;5.58;95.18;102435.78;5054179;28;20021;-69
2022/11/13 04:26:03;;;;;;;13.40;9.73;;;;;;;5.60;95.13;102441.06;5055273;28;20187;-70
2022/11/13 04:28:28;;;;;;;14.80;9.75;;;;;;;5.58;94.69;102434.06;5061113;28;20028;-70
2022/11/13 04:30:54;;;;;;;14.52;10.23;;;;;;;5.58;94.55;102426.31;5055838;28;20017;-70
2022/11/13 04:33:20;;;;;;;13.32;9.60;;;;;;;5.58;94.64;102426.31;5065185;28;20051;-70
2022/11/13 04:35:45;;;;;;;15.27;9.93;;;;;;;5.58;94.12;102421.16;5057055;28;20017;-69
2022/11/13 04:38:11;;;;;;;13.95;10.43;;;;;;;5.55;94.05;102414.88;5067899;28;20024;-69
2022/11/13 04:40:37;;;;;;;13.48;9.65;;;;;;;5.53;93.43;102408.69;5056727;28;20020;-70
2022/11/13 04:43:02;;;;;;;13.88;10.13;;;;;;;5.53;93.48;102413.88;5051933;28;20035;-70
2022/11/13 04:45:28;;;;;;;13.60;9.77;;;;;;;5.52;93.14;102412.97;5052963;28;20037;-70
2022/11/13 04:47:53;;;;;;;14.98;9.30;;;;;;;5.50;93.15;102411.94;5045790;28;20316;-75
2022/11/13 04:50:19;;;;;;;13.20;9.82;;;;;;;5.48;92.78;102420.41;5046795;28;20084;-75
2022/11/13 04:52:44;;;;;;;13.32;9.88;;;;;;;5.46;92.83;102412.56;5026116;28;20932;-75
2022/11/13 04:55:10;;;;;;;13.65;9.55;;;;;;;5.45;92.69;102415.03;5046072;28;20092;-75
2022/11/13 04:57:37;;;;;;;13.55;9.45;;;;;;;5.44;92.47;102411.53;5045269;28;20063;-75
2022/11/13 05:00:04;;;;;;;13.55;9.80;;;;;;;5.43;92.82;102414.00;5047403;28;21249;-75
2022/11/13 05:02:29;;;;;;;14.00;9.52;;;;;;;5.42;92.39;102402.78;5047247;28;20025;-75
2022/11/13 05:04:55;;;;;;;14.20;9.85;;;;;;;5.40;92.51;102405.28;5044153;28;20043;-75
2022/11/13 05:07:20;;;;;;;15.65;10.40;;;;;;;5.39;92.50;102418.09;5051914;28;20025;-75
2022/11/13 05:09:45;;;;;;;14.18;9.95;;;;;;;5.40;92.07;102414.69;5061354;28;20278;-75
2022/11/13 05:12:11;;;;;;;14.38;10.13;;;;;;;5.40;92.25;102414.69;5059636;28;20123;-75
2022/11/13 05:14:38;;;;;;;15.48;10.43;;;;;;;5.39;92.09;102416.38;5052728;28;20220;-75
2022/11/13 05:17:04;;;;;;;15.38;10.27;;;;;;;5.40;91.90;102419.84;5063412;28;20040;-75
2022/11/13 05:19:32;;;;;;;15.38;10.30;;;;;;;5.40;92.19;102415.59;5064265;28;20036;-75
2022/11/13 05:21:57;;;;;;;14.98;10.20;;;;;;;5.38;91.67;102409.41;5053120;28;20087;-75
2022/11/13 05:24:23;;;;;;;14.45;10.10;;;;;;;5.38;91.58;102409.41;5062431;28;20310;-75
2022/11/13 05:26:49;;;;;;;13.93;10.00;;;;;;;5.35;91.48;102406.63;5061645;28;20017;-75
2022/11/13 05:29:14;;;;;;;13.98;10.10;;;;;;;5.32;91.56;102398.66;5064328;28;20025;-75
2022/11/13 05:31:40;;;;;;;13.55;9.65;;;;;;;5.31;91.71;102399.44;5052125;28;20084;-75
2022/11/13 05:34:06;;;;;;;13.85;10.07;;;;;;;5.30;91.42;102394.16;5058427;28;20393;-75
2022/11/13 05:36:32;;;;;;;14.15;10.32;;;;;;;5.27;91.21;102388.78;5059213;28;20386;-75
2022/11/13 05:38:57;;;;;;;14.73;10.35;;;;;;;5.26;91.22;102386.97;5063640;28;20036;-75
2022/11/13 05:41:23;;;;;;;14.85;10.20;;;;;;;5.25;91.20;102382.63;5055601;28;20220;-75
2022/11/13 05:43:49;;;;;;;15.05;10.45;;;;;;;5.22;90.71;102386.78;5056502;28;20020;-75
2022/11/13 05:46:20;;;;;;;15.73;10.32;;;;;;;5.20;90.83;102388.38;5045263;28;20021;-75
2022/11/13 05:48:50;;;;;;;14.05;10.25;;;;;;;5.18;90.59;102387.34;5045987;28;20202;-75
2022/11/13 05:51:19;;;;;;;;;;;;;;;5.27;91.24;102392.28;5044852;28;20028;-76
2022/11/13 05:53:45;;;;;;;13.23;9.55;;;;;;;5.18;90.57;102389.03;5046651;28;20094;-75
2022/11/13 05:56:14;;;;;;;14.25;9.48;;;;;;;5.18;90.90;102394.22;5043368;28;20029;-76
2022/11/13 05:58:41;;;;;;;16.10;9.77;;;;;;;5.15;90.67;102392.28;5044887;28;20175;-76
2022/11/13 06:01:11;;;;;;;12.60;9.18;;;;;;;5.13;90.35;102395.59;5044503;28;20124;-76
2022/11/13 06:03:37;;;;;;;14.07;9.20;;;;;;;5.10;90.36;102385.00;5043128;28;20264;-75
2022/11/13 06:06:06;;;;;;;15.60;9.75;;;;;;;5.05;90.72;102387.28;5049664;28;20024;-75
2022/11/13 06:08:31;;;;;;;13.77;9.65;;;;;;;4.98;90.41;102388.53;5043711;28;20036;-75
2022/11/13 06:11:01;;;;;;;12.55;9.45;;;;;;;4.93;90.63;102392.47;5043623;28;20161;-75
2022/11/13 06:13:27;;;;;;;14.57;9.80;;;;;;;4.89;90.39;102385.28;5044138;28;20017;-75
2022/11/13 06:15:53;;;;;;;12.88;8.98;;;;;;;4.84;90.89;102379.78;5054074;28;20090;-75
2022/11/13 06:18:22;;;;;;;14.38;9.77;;;;;;;4.80;91.16;102374.31;5046078;28;20264;-70
2022/11/13 06:20:48;;;;;;;;;;;;;;;4.87;91.34;102373.97;5048401;28;20168;-69
2022/11/13 06:23:13;;;;;;;14.45;9.57;;;;;;;4.80;90.74;102369.13;5047358;28;20050;-70
2022/11/13 06:25:38;;;;;;;13.00;9.57;;;;;;;4.76;90.45;102373.16;5042751;28;20035;-70
2022/11/13 06:28:04;;;;;;;13.18;8.98;;;;;;;4.72;90.47;102365.09;5023961;28;20032;-69
2022/11/13 06:30:29;;;;;;;12.20;8.88;;;;;;;4.68;90.81;102366.56;5044419;28;20157;-70
2022/11/13 06:32:54;;;;;;;12.07;8.43;;;;;;;4.62;90.65;102364.44;5043008;28;20029;-69
2022/11/13 06:35:20;;;;;;;11.95;8.50;;;;;;;4.57;91.01;102362.31;5046681;28;20311;-70
2022/11/13 06:37:45;;;;;;;13.13;9.23;;;;;;;4.56;91.20;102370.84;5043777;28;20025;-70
2022/11/13 06:40:11;;;;;;;12.85;8.98;;;;;;;4.58;91.20;102359.84;5042672;28;20017;-70
2022/11/13 06:42:37;;;;;;;11.43;8.30;;;;;;;4.56;90.79;102357.94;5034263;28;20038;-70
2022/11/13 06:45:02;;;;;;;11.35;7.72;;;;;;;4.53;90.67;102359.53;5021684;28;20018;-70
2022/11/13 06:47:27;;;;;;;11.32;8.02;;;;;;;4.51;90.41;102360.19;5027255;28;20096;-70
2022/11/13 06:49:53;;;;;;;10.82;8.02;;;;;;;4.47;90.89;102359.03;5022616;28;20144;-70
2022/11/13 06:52:18;;;;;;;13.45;8.82;;;;;;;4.44;90.77;102353.66;5026596;28;20145;-70
2022/11/13 06:54:43;;;;;;;13.35;9.05;;;;;;;4.44;90.71;102350.19;5024918;28;20025;-70
2022/11/13 06:57:09;;;;;;;10.63;7.43;;;;;;;4.39;89.86;102349.88;5023777;28;20018;-70
2022/11/13 06:59:34;;;;;;;10.82;8.05;;;;;;;4.33;89.90;102350.31;5023548;28;20279;-69
2022/11/13 07:01:59;;;;;;;10.43;8.02;;;;;;;4.25;88.98;102354.00;5024393;28;20024;-69
2022/11/13 07:04:24;;;;;;;11.93;8.13;;;;;;;4.19;89.33;102358.72;5021641;28;20245;-69
2022/11/13 07:06:50;;;;;;;12.35;8.05;;;;;;;4.13;89.64;102355.69;5026039;28;20312;-70
2022/11/13 07:09:15;;;;;;;11.43;8.35;;;;;;;4.12;90.27;102353.91;5024369;28;20025;-70
2022/11/13 07:11:40;;;;;;;13.45;8.73;;;;;;;4.11;90.34;102360.75;5024079;28;20033;-70
2022/11/13 07:14:05;;;;;;;12.13;8.38;;;;;;;4.12;90.34;102354.78;5027060;28;20084;-70
2022/11/13 07:16:31;;;;;;;12.88;8.90;;;;;;;4.13;90.42;102354.00;5025023;28;20022;-70
2022/11/13 07:18:56;;;;;;;12.93;9.18;;;;;;;4.15;90.73;102357.59;5022724;28;20032;-70
2022/11/13 07:21:21;;;;;;;12.95;8.57;;;;;;;4.16;90.45;102346.50;5023079;28;20231;-70
2022/11/13 07:23:48;;;;;;;12.32;8.52;;;;;;;4.15;90.35;102346.38;5025127;28;20031;-70
2022/11/13 07:26:15;;;;;;;11.23;8.50;;;;;;;4.13;90.51;102347.97;5027350;28;20100;-70
2022/11/13 07:28:40;;;;;;;11.93;8.73;;;;;;;4.13;90.35;102348.84;5028891;28;20136;-70
2022/11/13 07:31:06;;;;;;;12.48;8.48;;;;;;;4.12;90.34;102343.56;5027153;28;20020;-69
2022/11/13 07:33:31;;;;;;;12.77;8.35;;;;;;;4.10;90.29;102340.88;5027576;28;20025;-70
2022/11/13 07:35:57;;;;;;;10.85;7.70;;;;;;;4.07;89.92;102342.31;5025614;28;20225;-70
2022/11/13 07:38:23;;;;;;;10.70;7.95;;;;;;;4.00;90.26;102339.28;5027596;28;20017;-70
2022/11/13 07:40:48;;;;;;;11.75;8.00;;;;;;;3.98;90.39;102346.03;5027602;28;20021;-70
2022/11/13 07:43:14;;;;;;;10.65;8.13;;;;;;;3.93;90.45;102341.31;5045749;28;20045;-69
2022/11/13 07:45:39;;;;;;;13.70;8.73;;;;;;;3.92;91.05;102339.50;5049563;28;20041;-69
2022/11/13 07:48:05;;;;;;;13.30;8.88;;;;;;;3.93;91.11;102336.16;5044472;28;20226;-75
2022/11/13 07:50:36;;;;;;;14.40;9.05;;;;;;;3.92;91.64;102340.41;5050542;28;20025;-74
2022/11/13 07:53:05;;;;;;;14.50;9.38;;;;;;;3.94;91.73;102330.19;5051389;28;20180;-75
2022/11/13 07:55:32;;;;;;;13.63;9.55;;;;;;;3.98;92.16;102333.13;5075144;28;20293;-75
2022/11/13 07:57:58;;;;;;;12.85;9.82;;;;;;;4.00;92.11;102331.56;5066618;28;20029;-75
2022/11/13 08:00:25;;;;;;;13.27;9.80;;;;;;;4.05;92.53;102336.16;5060628;28;20041;-75
2022/11/13 08:02:51;;;;;;;13.23;9.88;;;;;;;4.08;92.41;102336.38;5062589;28;20024;-75
2022/11/13 08:05:17;;;;;;;15.30;10.65;;;;;;;4.11;92.74;102340.13;5045836;28;20059;-75
2022/11/13 08:07:45;;;;;;;13.35;10.43;;;;;;;4.13;92.72;102335.94;5059942;28;20029;-75
2022/11/13 08:10:11;;;;;;;15.50;11.07;;;;;;;4.17;92.98;102343.13;5054394;28;20024;-75
2022/11/13 08:12:36;;;;;;;14.25;10.25;;;;;;;4.21;93.30;102335.63;5063998;28;20353;-75
2022/11/13 08:15:01;;;;;;;14.32;10.20;;;;;;;4.26;93.41;102332.59;5061065;28;20029;-75
2022/11/13 08:17:26;;;;;;;13.20;9.60;;;;;;;4.32;93.53;102329.56;5048358;28;20033;-69
2022/11/13 08:19:52;;;;;;;13.82;9.95;;;;;;;4.36;93.05;102334.16;5065378;28;20020;-70
2022/11/13 08:22:17;;;;;;;12.63;9.73;;;;;;;4.41;92.89;102329.34;5056614;28;20028;-70
2022/11/13 08:24:42;;;;;;;13.20;9.82;;;;;;;4.46;93.26;102330.56;5052542;28;20096;-70
2022/11/13 08:27:07;;;;;;;13.85;10.38;;;;;;;4.49;93.89;102328.19;5058987;28;20167;-70
2022/11/13 08:29:36;;;;;;;14.18;10.25;;;;;;;4.51;93.95;102326.63;5052154;28;20032;-70
2022/11/13 08:32:01;;;;;;;13.32;10.00;;;;;;;4.56;94.15;102324.38;5051854;28;20129;-69
2022/11/13 08:34:26;;;;;;;15.98;9.57;;;;;;;4.60;93.94;102318.66;5053845;28;20021;-69
2022/11/13 08:36:51;;;;;;;13.68;9.82;;;;;;;4.62;94.35;102320.56;5051316;28;20021;-70
2022/11/13 08:39:17;;;;;;;13.50;10.60;;;;;;;4.68;94.50;102321.00;5050512;28;20025;-69
2022/11/13 08:41:42;;;;;;;13.88;10.60;;;;;;;4.73;94.85;102320.44;5049559;28;20138;-70
2022/11/13 08:44:07;;;;;;;15.13;11.35;;;;;;;4.77;95.46;102317.28;5050810;28;20028;-70
2022/11/13 08:46:33;;;;;;;15.25;11.10;;;;;;;4.82;95.52;102316.81;5049000;28;20055;-75
2022/11/13 08:48:58;;;;;;;14.90;11.63;;;;;;;4.90;95.50;102316.47;5049715;28;20204;-75
2022/11/13 08:51:23;;;;;;;15.93;11.73;;;;;;;4.95;96.09;102307.34;5057925;28;20094;-75
2022/11/13 08:53:48;;;;;;;16.42;11.98;;;;;;;4.99;95.76;102305.06;5059804;28;20013;-76
2022/11/13 08:56:14;;;;;;;16.00;11.85;;;;;;;5.04;95.96;102303.72;5057745;28;20044;-75
2022/11/13 08:58:40;;;;;;;15.57;11.25;;;;;;;5.10;95.75;102307.50;5062283;28;20021;-75
2022/11/13 09:01:05;;;;;;;14.32;11.00;;;;;;;5.14;95.63;102309.50;5050852;28;20023;-75
2022/11/13 09:03:30;;;;;;;15.05;11.10;;;;;;;5.17;96.00;102308.06;5050164;28;20152;-75
2022/11/13 09:05:56;;;;;;;14.13;10.60;;;;;;;5.21;96.26;102304.91;5044622;28;20029;-75
2022/11/13 09:08:21;;;;;;;14.60;10.73;;;;;;;5.27;96.55;102306.09;5043399;28;20025;-75
2022/11/13 09:10:46;;;;;;;15.25;11.02;;;;;;;5.35;96.10;102305.81;5051424;28;20021;-75
2022/11/13 09:13:12;;;;;;;15.38;10.73;;;;;;;5.43;96.09;102300.28;5056030;28;20016;-75
2022/11/13 09:15:38;;;;;;;14.95;10.88;;;;;;;5.46;96.01;102292.72;5058921;28;20092;-75
2022/11/13 09:18:04;;;;;;;14.10;10.52;;;;;;;5.51;96.08;102291.38;5056425;28;20029;-75
2022/11/13 09:20:31;;;;;;;14.60;11.30;;;;;;;5.61;95.66;102293.78;5053052;28;20056;-75
2022/11/13 09:22:58;;;;;;;15.07;10.93;;;;;;;5.68;94.92;102289.91;5052881;28;20067;-74
2022/11/13 09:25:23;;;;;;;13.10;10.20;;;;;;;5.76;94.61;102293.88;5050158;28;20059;-73
2022/11/13 09:27:54;;;;;;;14.45;10.25;;;;;;;5.84;94.64;102287.53;5059310;28;20327;-74
2022/11/13 09:30:19;;;;;;;13.02;10.27;;;;;;;5.92;94.52;102288.03;5058910;28;20286;-74
2022/11/13 09:32:45;;;;;;;13.50;10.10;;;;;;;6.01;94.39;102286.09;5054027;28;20013;-74
2022/11/13 09:35:10;;;;;;;13.90;10.38;;;;;;;6.07;94.32;102286.50;5054647;28;20072;-74
2022/11/13 09:37:35;;;;;;;14.93;10.30;;;;;;;6.15;93.85;102291.28;5062539;28;20024;-74
2022/11/13 09:40:01;;;;;;;15.27;10.27;;;;;;;6.23;93.88;102292.69;5051685;28;20017;-74
2022/11/13 09:42:28;;;;;;;14.68;10.25;;;;;;;6.31;93.60;102286.28;5063348;28;20246;-74
2022/11/13 09:45:06;;;;;;;14.55;10.48;;;;;;;6.38;94.19;102298.81;5063724;28;20017;-73
2022/11/13 09:48:10;;;;;;;13.73;10.50;;;;;;;6.46;93.50;102288.97;5062502;28;20035;-74
2022/11/13 09:50:35;;;;;;;13.98;9.77;;;;;;;6.52;93.22;102286.78;5051278;28;20028;-73
2022/11/13 09:53:02;;;;;;;14.15;9.85;;;;;;;6.59;92.13;102285.47;5056673;28;20021;-73
2022/11/13 09:55:37;;;;;;;15.25;10.00;;;;;;;6.67;92.05;102286.84;5063539;28;20089;-73
2022/11/13 09:58:11;;;;;;;13.05;9.55;;;;;;;6.74;92.01;102283.81;5064269;28;20021;-74
2022/11/13 10:00:36;;;;;;;14.15;9.77;;;;;;;6.83;91.53;102280.03;5056980;28;20033;-73
2022/11/13 10:03:34;;;;;;;14.45;10.52;;;;;;;6.89;91.26;102275.22;5036584;28;20021;-73
2022/11/13 10:06:23;;;;;;;13.60;9.85;;;;;;;6.99;90.50;102274.09;5057536;28;20115;-73
2022/11/13 10:08:52;;;;;;;13.23;9.85;;;;;;;7.07;91.14;102278.94;5062019;28;20025;-73
2022/11/13 10:11:59;;;;;;;13.27;10.00;;;;;;;7.16;90.27;102270.84;5060990;28;20084;-74
2022/11/13 10:14:36;;;;;;;13.23;9.48;;;;;;;7.25;90.09;102278.25;4962690;29;20070;-73
2022/11/13 10:17:10;;;;;;;12.35;9.65;;;;;;;7.31;89.86;102282.13;4951211;29;20034;-73
2022/11/13 10:19:44;;;;;;;12.77;9.73;;;;;;;7.39;88.87;102276.50;4992439;28;20036;-72
2022/11/13 10:22:36;;;;;;;12.25;9.48;;;;;;;7.49;90.26;102273.66;5054184;28;20024;-73
2022/11/13 10:25:22;;;;;;;13.73;10.00;;;;;;;7.58;90.02;102269.00;5047310;28;20055;-73
2022/11/13 10:27:54;;;;;;;12.23;9.52;;;;;;;7.65;87.81;102271.16;5061043;28;20021;-73
2022/11/13 10:30:20;;;;;;;11.65;9.77;;;;;;;7.77;86.35;102268.38;5050907;28;20052;-73
2022/11/13 10:32:46;;;;;;;12.85;9.30;;;;;;;7.87;87.86;102261.13;5062304;28;20270;-74
2022/11/13 10:35:20;;;;;;;15.80;10.23;;;;;;;7.98;86.42;102266.13;5052591;28;20055;-73
2022/11/13 10:37:58;;;;;;;11.48;9.43;;;;;;;8.10;87.26;102255.53;5032939;28;20168;-73
2022/11/13 10:40:29;;;;;;;13.35;9.90;;;;;;;8.22;87.44;102254.44;5052112;28;20283;-73
2022/11/13 10:43:05;;;;;;;12.70;9.50;;;;;;;8.31;87.38;102252.34;5059215;28;20048;-73
2022/11/13 10:45:30;;;;;;;14.68;9.40;;;;;;;8.41;85.16;102249.44;5062859;28;20033;-73
2022/11/13 10:47:56;;;;;;;13.23;9.80;;;;;;;8.57;84.65;102237.34;5058955;28;20334;-73
2022/11/13 10:50:27;;;;;;;12.98;9.13;;;;;;;8.70;83.61;102234.59;5053553;28;20283;-73
2022/11/13 10:52:53;;;;;;;12.48;9.40;;;;;;;8.80;82.75;102234.25;5059263;28;20092;-73
2022/11/13 10:55:37;;;;;;;14.10;9.63;;;;;;;8.90;82.69;102221.78;5058339;28;20073;-74
2022/11/13 10:58:11;;;;;;;12.20;9.27;;;;;;;9.00;82.40;102219.72;5060487;28;20175;-73
2022/11/13 11:00:40;;;;;;;12.88;10.05;;;;;;;9.10;80.39;102215.91;5064668;28;20020;-74
2022/11/13 11:03:23;;;;;;;12.30;9.75;;;;;;;9.20;81.51;102210.34;5067204;28;20088;-73
2022/11/13 11:05:56;;;;;;;12.90;9.55;;;;;;;9.29;82.31;102211.66;5048444;28;20029;-73
2022/11/13 11:08:33;;;;;;;12.93;9.30;;;;;;;9.37;81.01;102203.41;5057653;28;20029;-74
2022/11/13 11:13:50;;;;;;;12.57;9.05;;;;;;;9.61;79.04;102196.75;5058928;28;20213;-73
2022/11/13 11:16:23;;;;;;;11.85;9.48;;;;;;;9.76;79.15;102194.88;5057785;28;20048;-73
2022/11/13 11:19:00;;;;;;;11.60;8.95;;;;;;;9.90;78.08;102192.97;5053009;28;20331;-73
2022/11/13 11:21:31;;;;;;;12.60;9.10;;;;;;;10.00;78.20;102199.53;5062404;28;20267;-73
2022/11/13 11:24:07;;;;;;;12.13;8.90;;;;;;;10.12;78.98;102205.28;5053628;28;20105;-73
2022/11/13 11:26:41;;;;;;;11.88;9.25;;;;;;;10.24;78.17;102199.78;5064596;28;20079;-67